createdAt,value
2022-12-05T00:02:01.895Z,100441.97
2022-12-05T00:04:30.266Z,100444.00
2022-12-05T00:06:58.350Z,100452.69
2022-12-05T00:09:26.547Z,100452.28
2022-12-05T00:11:54.485Z,100452.88
2022-12-05T00:14:22.776Z,100451.25
2022-12-05T00:16:50.730Z,100450.84
2022-12-05T00:19:20.325Z,100450.44
2022-12-05T00:21:48.270Z,100457.31
2022-12-05T00:24:16.928Z,100458.91
2022-12-05T00:26:45.273Z,100464.16
2022-12-05T00:29:13.858Z,100458.13
2022-12-05T00:31:42.290Z,100462.97
2022-12-05T00:34:10.927Z,100464.56
2022-12-05T00:36:40.901Z,100464.56
2022-12-05T00:39:11.164Z,100467.00
2022-12-05T00:41:39.373Z,100462.38
2022-12-05T00:44:07.629Z,100464.97
2022-12-05T00:46:36.498Z,100466.59
2022-12-05T00:49:06.032Z,100469.81
2022-12-05T00:51:36.679Z,100473.06
2022-12-05T00:54:09.344Z,100474.44
2022-12-05T00:56:37.589Z,100481.13
2022-12-05T00:59:06.389Z,100479.09
2022-12-05T01:01:36.197Z,100480.69
2022-12-05T01:04:06.278Z,100487.13
2022-12-05T01:06:34.589Z,100483.53
2022-12-05T01:09:02.993Z,100484.69
2022-12-05T01:11:37.624Z,100488.34
2022-12-05T01:14:09.245Z,100487.72
2022-12-05T01:16:38.526Z,100486.28
2022-12-05T01:19:08.537Z,100487.69
2022-12-05T01:21:36.479Z,100482.66
2022-12-05T01:24:04.937Z,100495.56
2022-12-05T01:26:34.226Z,100494.78
2022-12-05T01:29:02.533Z,100484.84
2022-12-05T01:31:32.041Z,100485.03
2022-12-05T01:34:01.790Z,100488.28
2022-12-05T01:36:30.076Z,100487.03
2022-12-05T01:38:58.727Z,100495.09
2022-12-05T01:41:29.351Z,100498.13
2022-12-05T01:44:02.054Z,100502.56
2022-12-05T01:46:31.964Z,100503.13
2022-12-05T01:49:04.276Z,100494.25
2022-12-05T01:51:33.573Z,100492.63
2022-12-05T01:54:02.283Z,100492.63
2022-12-05T01:56:32.703Z,100497.09
2022-12-05T01:59:03.952Z,100497.88
2022-12-05T02:01:32.040Z,100503.13
2022-12-05T02:04:00.536Z,100501.53
2022-12-05T02:06:29.026Z,100511.66
2022-12-05T02:08:57.326Z,100518.13
2022-12-05T02:11:27.067Z,100510.06
2022-12-05T02:14:10.796Z,100512.94
2022-12-05T02:16:47.555Z,100511.28
2022-12-05T02:19:39.946Z,100512.94
2022-12-05T02:22:28.576Z,100512.50
2022-12-05T02:25:08.872Z,100518.38
2022-12-05T02:28:10.826Z,100514.94
2022-12-05T02:30:43.185Z,100518.59
2022-12-05T02:33:18.697Z,100522.66
2022-12-05T02:35:51.963Z,100523.47
2022-12-05T02:38:26.888Z,100517.41
2022-12-05T02:41:02.576Z,100526.28
2022-12-05T02:43:34.613Z,100523.06
2022-12-05T02:46:09.006Z,100530.75
2022-12-05T02:48:37.748Z,100533.38
2022-12-05T02:51:06.903Z,100535.78
2022-12-05T02:53:36.312Z,100547.69
2022-12-05T02:56:05.198Z,100554.16
2022-12-05T02:58:35.270Z,100556.16
2022-12-05T03:01:05.195Z,100562.25
2022-12-05T03:03:34.300Z,100570.31
2022-12-05T03:06:05.410Z,100577.59
2022-12-05T03:08:36.560Z,100570.53
2022-12-05T03:11:05.136Z,100579.19
2022-12-05T03:13:36.906Z,100575.78
2022-12-05T03:16:09.980Z,100570.75
2022-12-05T03:18:40.411Z,100574.34
2022-12-05T03:21:12.409Z,100572.34
2022-12-05T03:23:43.165Z,100574.97
2022-12-05T03:26:17.771Z,100570.31
2022-12-05T03:28:52.900Z,100582.00
2022-12-05T03:31:26.025Z,100583.44
2022-12-05T03:33:58.875Z,100579.59
2022-12-05T03:36:30.193Z,100588.88
2022-12-05T03:39:04.212Z,100586.47
2022-12-05T03:41:37.249Z,100587.25
2022-12-05T03:44:08.906Z,100587.25
2022-12-05T03:46:41.636Z,100591.72
2022-12-05T03:49:13.132Z,100594.72
2022-12-05T03:51:43.621Z,100594.13
2022-12-05T03:54:15.329Z,100602.19
2022-12-05T03:56:46.521Z,100605.78
2022-12-05T03:59:18.309Z,100595.72
2022-12-05T04:01:48.605Z,100594.13
2022-12-05T04:04:20.111Z,100599.59
2022-12-05T04:06:50.371Z,100605.41
2022-12-05T04:09:21.787Z,100604.00
2022-12-05T04:11:52.863Z,100603.81
2022-12-05T04:14:24.631Z,100612.28
2022-12-05T04:17:05.690Z,100607.03
2022-12-05T04:19:57.712Z,100603.41
2022-12-05T04:22:27.064Z,100595.34
2022-12-05T04:25:13.597Z,100596.75
2022-12-05T04:27:44.425Z,100598.97
2022-12-05T04:30:15.109Z,100603.41
2022-12-05T04:32:47.496Z,100596.97
2022-12-05T04:35:18.768Z,100596.56
2022-12-05T04:37:49.148Z,100595.31
2022-12-05T04:40:20.815Z,100602.59
2022-12-05T04:42:50.894Z,100605.41
2022-12-05T04:45:23.701Z,100610.84
2022-12-05T04:47:56.875Z,100605.19
2022-12-05T04:50:25.910Z,100608.44
2022-12-05T04:52:55.525Z,100609.03
2022-12-05T04:55:26.689Z,100605.38
2022-12-05T04:58:02.907Z,100602.19
2022-12-05T05:00:32.106Z,100600.94
2022-12-05T05:03:06.244Z,100599.53
2022-12-05T05:05:36.180Z,100593.25
2022-12-05T05:08:04.595Z,100594.28
2022-12-05T05:10:36.617Z,100597.25
2022-12-05T05:13:04.788Z,100598.91
2022-12-05T05:15:32.716Z,100601.94
2022-12-05T05:18:02.144Z,100602.53
2022-12-05T05:20:30.137Z,100601.34
2022-12-05T05:22:58.982Z,100610.22
2022-12-05T05:25:26.989Z,100608.59
2022-12-05T05:27:56.913Z,100601.34
2022-12-05T05:30:25.564Z,100609.81
2022-12-05T05:32:54.109Z,100609.41
2022-12-05T05:35:23.593Z,100615.88
2022-12-05T05:37:51.802Z,100609.03
2022-12-05T05:40:20.280Z,100601.34
2022-12-05T05:42:49.994Z,100616.69
2022-12-05T05:45:18.522Z,100619.53
2022-12-05T05:47:48.977Z,100615.09
2022-12-05T05:50:21.464Z,100626.03
2022-12-05T05:52:51.599Z,100630.84
2022-12-05T05:55:20.002Z,100635.09
2022-12-05T05:57:48.200Z,100638.53
2022-12-05T06:00:16.752Z,100641.38
2022-12-05T06:02:45.107Z,100643.59
2022-12-05T06:05:13.134Z,100648.22
2022-12-05T06:07:41.491Z,100648.63
2022-12-05T06:10:11.222Z,100649.03
2022-12-05T06:12:39.391Z,100650.66
2022-12-05T06:15:08.896Z,100647.59
2022-12-05T06:17:38.432Z,100650.22
2022-12-05T06:20:08.418Z,100646.81
2022-12-05T06:22:36.717Z,100647.81
2022-12-05T06:25:05.054Z,100662.78
2022-12-05T06:27:34.743Z,100658.72
2022-12-05T06:30:02.762Z,100656.28
2022-12-05T06:32:31.584Z,100660.16
2022-12-05T06:34:59.505Z,100664.38
2022-12-05T06:37:27.723Z,100658.53
2022-12-05T06:39:56.088Z,100661.16
2022-12-05T06:42:24.479Z,100670.25
2022-12-05T06:44:53.782Z,100682.75
2022-12-05T06:47:21.952Z,100682.97
2022-12-05T06:49:49.848Z,100691.81
2022-12-05T06:52:18.020Z,100697.50
2022-12-05T06:54:46.655Z,100695.47
2022-12-05T06:57:15.443Z,100707.56
2022-12-05T06:59:43.324Z,100707.78
2022-12-05T07:02:13.156Z,100708.41
2022-12-05T07:04:41.226Z,100703.56
2022-12-05T07:07:09.446Z,100703.16
2022-12-05T07:09:52.226Z,100705.97
2022-12-05T07:12:20.669Z,100708.00
2022-12-05T07:14:49.866Z,100712.03
2022-12-05T07:17:20.043Z,100713.25
2022-12-05T07:19:49.642Z,100713.44
2022-12-05T07:22:18.778Z,100712.44
2022-12-05T07:24:47.017Z,100709.41
2022-12-05T07:27:18.437Z,100716.47
2022-12-05T07:29:48.642Z,100715.47
2022-12-05T07:32:17.027Z,100707.56
2022-12-05T07:34:49.622Z,100718.50
2022-12-05T07:37:20.511Z,100720.53
2022-12-05T07:39:48.428Z,100712.84
2022-12-05T07:42:16.822Z,100720.53
2022-12-05T07:44:44.787Z,100730.84
2022-12-05T07:47:13.001Z,100731.81
2022-12-05T07:49:41.028Z,100726.97
2022-12-05T07:52:10.717Z,100717.69
2022-12-05T07:54:38.689Z,100717.88
2022-12-05T07:57:06.820Z,100735.44
2022-12-05T07:59:34.781Z,100731.38
2022-12-05T08:02:03.062Z,100739.47
2022-12-05T08:04:31.078Z,100739.47
2022-12-05T08:06:59.229Z,100744.34
2022-12-05T08:09:28.564Z,100745.94
2022-12-05T08:11:56.804Z,100751.19
2022-12-05T08:14:24.743Z,100763.50
2022-12-05T08:16:53.089Z,100753.63
2022-12-05T08:19:21.074Z,100763.31
2022-12-05T08:21:49.351Z,100761.94
2022-12-05T08:24:18.784Z,100768.00
2022-12-05T08:26:51.076Z,100769.19
2022-12-05T08:29:22.231Z,100771.41
2022-12-05T08:31:52.125Z,100777.50
2022-12-05T08:34:21.219Z,100775.06
2022-12-05T08:36:50.032Z,100764.16
2022-12-05T08:39:19.977Z,100766.16
2022-12-05T08:41:48.980Z,100768.78
2022-12-05T08:44:18.861Z,100776.25
2022-12-05T08:46:48.715Z,100767.78
2022-12-05T08:49:17.087Z,100777.06
2022-12-05T08:51:45.704Z,100779.06
2022-12-05T08:54:14.082Z,100789.19
2022-12-05T08:56:42.270Z,100787.97
2022-12-05T08:59:10.265Z,100781.91
2022-12-05T09:01:40.517Z,100789.78
2022-12-05T09:04:08.923Z,100793.66
2022-12-05T09:06:39.065Z,100794.06
2022-12-05T09:09:08.311Z,100801.72
2022-12-05T09:11:40.712Z,100804.56
2022-12-05T09:14:08.866Z,100805.97
2022-12-05T09:16:39.400Z,100807.41
2022-12-05T09:19:12.613Z,100803.53
2022-12-05T09:21:40.865Z,100813.03
2022-12-05T09:24:11.000Z,100819.13
2022-12-05T09:26:40.889Z,100815.47
2022-12-05T09:29:15.753Z,100827.19
2022-12-05T09:31:45.545Z,100831.66
2022-12-05T09:34:15.895Z,100830.25
2022-12-05T09:36:44.779Z,100833.50
2022-12-05T09:39:13.045Z,100836.91
2022-12-05T09:42:09.932Z,100836.50
2022-12-05T09:44:56.589Z,100834.28
2022-12-05T09:47:33.753Z,100836.91
2022-12-05T09:50:14.279Z,100834.47
2022-12-05T09:52:45.725Z,100826.38
2022-12-05T09:55:16.137Z,100823.34
2022-12-05T09:57:47.473Z,100823.75
2022-12-05T10:00:16.315Z,100821.13
2022-12-05T10:02:51.652Z,100829.63
2022-12-05T10:05:25.197Z,100830.03
2022-12-05T10:08:02.264Z,100821.53
2022-12-05T10:10:35.625Z,100823.16
2022-12-05T10:13:27.736Z,100825.59
2022-12-05T10:15:57.802Z,100823.16
2022-12-05T10:18:31.460Z,100820.31
2022-12-05T10:21:04.986Z,100821.09
2022-12-05T10:26:27.157Z,100821.50
2022-12-05T10:29:01.058Z,100822.94
2022-12-05T10:31:32.391Z,100827.59
2022-12-05T10:34:05.835Z,100824.56
2022-12-05T10:36:35.780Z,100823.94
2022-12-05T10:39:09.883Z,100828.00
2022-12-05T10:41:39.436Z,100829.00
2022-12-05T10:44:07.615Z,100833.69
2022-12-05T10:46:36.067Z,100838.13
2022-12-05T10:49:11.039Z,100830.84
2022-12-05T10:51:40.836Z,100834.06
2022-12-05T10:54:16.645Z,100830.44
2022-12-05T10:56:46.284Z,100833.28
2022-12-05T10:59:16.455Z,100829.63
2022-12-05T11:01:48.823Z,100833.69
2022-12-05T11:04:26.718Z,100822.75
2022-12-05T11:06:58.787Z,100825.19
2022-12-05T11:09:28.565Z,100814.28
2022-12-05T11:12:16.025Z,100821.53
2022-12-05T11:14:56.280Z,100821.53
2022-12-05T11:17:26.805Z,100828.44
2022-12-05T11:19:54.996Z,100822.34
2022-12-05T11:22:31.633Z,100823.16
2022-12-05T11:25:00.462Z,100817.06
2022-12-05T11:27:30.747Z,100817.88
2022-12-05T11:30:02.502Z,100823.69
2022-12-05T11:32:32.265Z,100817.47
2022-12-05T11:35:09.285Z,100822.75
2022-12-05T11:37:41.936Z,100813.00
2022-12-05T11:40:16.113Z,100807.16
2022-12-05T11:43:12.405Z,100817.47
2022-12-05T11:45:49.837Z,100817.88
2022-12-05T11:48:27.036Z,100809.78
2022-12-05T11:51:08.874Z,100810.97
2022-12-05T11:53:50.320Z,100807.94
2022-12-05T11:56:27.868Z,100795.59
2022-12-05T11:59:02.809Z,100797.22
2022-12-05T12:01:40.460Z,100787.50
2022-12-05T12:04:24.959Z,100786.31
2022-12-05T12:07:04.157Z,100785.47
2022-12-05T12:09:44.046Z,100797.59
2022-12-05T12:12:20.800Z,100791.16
2022-12-05T12:14:56.275Z,100787.91
2022-12-05T12:17:30.253Z,100796.00
2022-12-05T12:20:10.703Z,100792.97
2022-12-05T12:22:49.433Z,100793.34
2022-12-05T12:25:26.162Z,100797.19
2022-12-05T12:28:05.217Z,100791.56
2022-12-05T12:30:44.298Z,100794.00
2022-12-05T12:33:17.219Z,100796.63
2022-12-05T12:35:48.471Z,100792.16
2022-12-05T12:38:35.986Z,100789.94
2022-12-05T12:41:09.863Z,100788.31
2022-12-05T12:43:55.802Z,100788.69
2022-12-05T12:46:32.197Z,100776.94
2022-12-05T12:49:11.845Z,100775.69
2022-12-05T12:51:45.065Z,100782.91
2022-12-05T12:54:40.127Z,100781.88
2022-12-05T12:57:24.102Z,100779.19
2022-12-05T13:00:01.761Z,100780.84
2022-12-05T13:02:34.839Z,100775.16
2022-12-05T13:05:08.014Z,100776.53
2022-12-05T13:07:37.807Z,100771.88
2022-12-05T13:10:13.817Z,100777.16
2022-12-05T13:12:44.070Z,100787.25
2022-12-05T13:15:15.505Z,100782.41
2022-12-05T13:17:45.223Z,100788.16
2022-12-05T13:20:16.331Z,100779.66
2022-12-05T13:22:45.093Z,100795.25
2022-12-05T13:25:15.602Z,100798.69
2022-12-05T13:27:54.972Z,100795.88
2022-12-05T13:30:23.743Z,100792.66
2022-12-05T13:32:56.758Z,100795.53
2022-12-05T13:35:49.216Z,100797.94
2022-12-05T13:38:39.523Z,100804.03
2022-12-05T13:41:25.370Z,100792.84
2022-12-05T13:44:05.928Z,100791.63
2022-12-05T13:46:36.635Z,100807.66
2022-12-05T13:49:08.839Z,100806.84
2022-12-05T13:51:41.621Z,100809.06
2022-12-05T13:54:13.279Z,100801.56
2022-12-05T13:56:50.326Z,100810.47
2022-12-05T13:59:55.780Z,100808.25
2022-12-05T14:02:56.361Z,100808.84
2022-12-05T14:05:45.740Z,100813.75
2022-12-05T14:08:53.992Z,100816.16
2022-12-05T14:11:21.997Z,100811.69
2022-12-05T14:13:50.624Z,100806.41
2022-12-05T14:16:43.911Z,100802.31
2022-12-05T14:19:43.515Z,100808.38
2022-12-05T14:22:32.689Z,100809.97
2022-12-05T14:25:05.260Z,100813.22
2022-12-05T14:27:44.591Z,100810.97
2022-12-05T14:30:22.828Z,100822.94
2022-12-05T14:32:51.949Z,100811.19
2022-12-05T14:35:25.643Z,100810.81
2022-12-05T14:37:55.525Z,100824.78
2022-12-05T14:40:29.267Z,100820.13
2022-12-05T14:42:58.924Z,100819.50
2022-12-05T14:45:33.548Z,100822.34
2022-12-05T14:48:03.176Z,100825.19
2022-12-05T14:50:42.214Z,100829.03
2022-12-05T14:53:34.933Z,100820.94
2022-12-05T14:56:16.259Z,100819.34
2022-12-05T14:58:48.639Z,100819.34
2022-12-05T15:01:19.806Z,100832.50
2022-12-05T15:04:05.359Z,100824.81
2022-12-05T15:06:36.593Z,100831.88
2022-12-05T15:09:35.343Z,100833.53
2022-12-05T15:11:56.011Z,100832.31
2022-12-05T15:14:31.089Z,100841.22
2022-12-05T15:17:00.738Z,100838.38
2022-12-05T15:19:31.448Z,100840.41
2022-12-05T15:22:02.723Z,100845.28
2022-12-05T15:24:38.053Z,100846.31
2022-12-05T15:27:07.975Z,100842.03
2022-12-05T15:29:36.141Z,100847.50
2022-12-05T15:32:06.399Z,100849.16
2022-12-05T15:34:38.417Z,100854.00
2022-12-05T15:37:13.330Z,100848.16
2022-12-05T15:39:55.782Z,100851.81
2022-12-05T15:42:29.235Z,100850.78
2022-12-05T15:45:13.440Z,100844.53
2022-12-05T15:47:42.525Z,100850.38
2022-12-05T15:50:14.409Z,100846.16
2022-12-05T15:52:47.300Z,100850.19
2022-12-05T15:55:17.091Z,100853.25
2022-12-05T15:57:48.022Z,100852.63
2022-12-05T16:00:18.239Z,100853.47
2022-12-05T16:02:48.709Z,100846.19
2022-12-05T16:05:22.098Z,100851.44
2022-12-05T16:07:53.638Z,100852.63
2022-12-05T16:10:29.120Z,100851.03
2022-12-05T16:13:04.322Z,100848.00
2022-12-05T16:15:32.566Z,100853.47
2022-12-05T16:18:02.205Z,100850.00
2022-12-05T16:20:34.150Z,100854.28
2022-12-05T16:23:05.986Z,100855.66
2022-12-05T16:25:36.011Z,100859.13
2022-12-05T16:28:17.217Z,100863.16
2022-12-05T16:30:57.067Z,100858.53
2022-12-05T16:33:25.800Z,100865.22
2022-12-05T16:35:53.981Z,100851.25
2022-12-05T16:38:25.685Z,100862.78
2022-12-05T16:40:58.792Z,100850.66
2022-12-05T16:43:30.481Z,100853.47
2022-12-05T16:46:00.642Z,100852.63
2022-12-05T16:48:29.952Z,100850.19
2022-12-05T16:51:18.243Z,100851.41
2022-12-05T16:53:51.682Z,100859.50
2022-12-05T16:56:21.869Z,100858.66
2022-12-05T16:58:50.199Z,100861.91
2022-12-05T17:01:20.577Z,100858.25
2022-12-05T17:03:49.326Z,100850.97
2022-12-05T17:06:18.272Z,100865.94
2022-12-05T17:08:47.929Z,100862.72
2022-12-05T17:11:17.839Z,100863.13
2022-12-05T17:13:48.280Z,100857.69
2022-12-05T17:16:16.390Z,100868.00
2022-12-05T17:18:44.649Z,100868.41
2022-12-05T17:21:15.444Z,100863.75
2022-12-05T17:23:47.931Z,100866.78
2022-12-05T17:26:20.135Z,100869.38
2022-12-05T17:28:48.416Z,100876.66
2022-12-05T17:31:17.704Z,100869.16
2022-12-05T17:33:46.838Z,100876.03
2022-12-05T17:36:15.202Z,100880.09
2022-12-05T17:38:44.118Z,100873.56
2022-12-05T17:41:17.123Z,100876.81
2022-12-05T17:43:46.636Z,100882.28
2022-12-05T17:46:17.197Z,100881.84
2022-12-05T17:48:45.499Z,100884.47
2022-12-05T17:51:14.556Z,100886.50
2022-12-05T17:53:44.398Z,100888.13
2022-12-05T17:56:12.876Z,100891.38
2022-12-05T17:58:42.869Z,100881.63
2022-12-05T18:01:15.754Z,100880.44
2022-12-05T18:03:44.697Z,100879.19
2022-12-05T18:06:12.735Z,100881.63
2022-12-05T18:08:43.800Z,100884.84
2022-12-05T18:11:14.438Z,100886.44
2022-12-05T18:13:43.984Z,100882.81
2022-12-05T18:16:13.181Z,100885.66
2022-12-05T18:18:41.471Z,100888.50
2022-12-05T18:21:11.681Z,100889.31
2022-12-05T18:23:41.661Z,100884.84
2022-12-05T18:26:11.111Z,100891.94
2022-12-05T18:28:40.078Z,100891.72
2022-12-05T18:31:11.335Z,100889.09
2022-12-05T18:33:40.269Z,100890.13
2022-12-05T18:36:09.764Z,100882.44
2022-12-05T18:38:39.284Z,100888.09
2022-12-05T18:41:08.066Z,100887.28
2022-12-05T18:43:37.059Z,100893.34
2022-12-05T18:46:06.009Z,100897.00
2022-12-05T18:48:42.626Z,100902.25
2022-12-05T18:51:14.939Z,100897.00
2022-12-05T18:53:51.913Z,100893.34
2022-12-05T18:56:23.939Z,100891.72
2022-12-05T18:58:57.389Z,100885.47
2022-12-05T19:01:25.858Z,100886.44
2022-12-05T19:03:56.053Z,100884.03
2022-12-05T19:06:25.601Z,100883.81
2022-12-05T19:08:55.257Z,100879.38
2022-12-05T19:11:23.865Z,100877.56
2022-12-05T19:13:55.529Z,100885.25
2022-12-05T19:16:23.518Z,100889.69
2022-12-05T19:18:56.114Z,100896.00
2022-12-05T19:21:24.877Z,100891.72
2022-12-05T19:23:53.213Z,100886.88
2022-12-05T19:26:21.668Z,100890.53
2022-12-05T19:28:50.509Z,100899.44
2022-12-05T19:31:21.232Z,100895.41
2022-12-05T19:33:51.784Z,100901.50
2022-12-05T19:36:23.444Z,100899.09
2022-12-05T19:38:52.930Z,100901.13
2022-12-05T19:41:22.881Z,100895.84
2022-12-05T19:43:51.401Z,100899.47
2022-12-05T19:46:21.166Z,100905.16
2022-12-05T19:48:49.560Z,100897.03
2022-12-05T19:51:17.598Z,100898.88
2022-12-05T19:53:47.655Z,100897.47
2022-12-05T19:56:17.642Z,100902.72
2022-12-05T19:58:46.558Z,100902.13
2022-12-05T20:01:16.519Z,100903.56
2022-12-05T20:03:48.506Z,100902.34
2022-12-05T20:06:17.222Z,100902.34
2022-12-05T20:08:47.472Z,100900.31
2022-12-05T20:11:17.741Z,100894.06
2022-12-05T20:13:47.746Z,100892.84
2022-12-05T20:16:18.369Z,100902.75
2022-12-05T20:18:47.172Z,100901.53
2022-12-05T20:21:16.664Z,100902.72
2022-12-05T20:23:44.969Z,100899.66
2022-12-05T20:26:17.168Z,100904.72
2022-12-05T20:28:46.611Z,100903.72
2022-12-05T20:31:16.825Z,100897.44
2022-12-05T20:33:45.381Z,100911.19
2022-12-05T20:36:14.843Z,100906.75
2022-12-05T20:38:43.241Z,100907.19
2022-12-05T20:41:15.434Z,100912.03
2022-12-05T20:43:43.920Z,100908.78
2022-12-05T20:46:14.313Z,100914.03
2022-12-05T20:48:42.614Z,100908.16
2022-12-05T20:51:12.357Z,100913.25
2022-12-05T20:53:42.338Z,100916.91
2022-12-05T20:56:11.970Z,100908.63
2022-12-05T20:58:41.860Z,100908.41
2022-12-05T21:01:11.483Z,100909.63
2022-12-05T21:03:41.677Z,100904.72
2022-12-05T21:06:10.730Z,100915.25
2022-12-05T21:08:39.148Z,100908.38
2022-12-05T21:11:08.315Z,100913.44
2022-12-05T21:13:36.495Z,100914.03
2022-12-05T21:16:08.069Z,100913.63
2022-12-05T21:18:36.551Z,100908.97
2022-12-05T21:21:06.493Z,100911.19
2022-12-05T21:23:35.434Z,100897.00
2022-12-05T21:26:05.084Z,100899.41
2022-12-05T21:28:35.097Z,100901.88
2022-12-05T21:31:09.417Z,100895.56
2022-12-05T21:33:38.103Z,100899.81
2022-12-05T21:36:06.997Z,100898.00
2022-12-05T21:38:35.790Z,100897.16
2022-12-05T21:41:04.827Z,100897.78
2022-12-05T21:43:34.822Z,100904.66
2022-12-05T21:46:03.276Z,100896.75
2022-12-05T21:48:33.545Z,100893.31
2022-12-05T21:51:01.646Z,100895.16
2022-12-05T21:53:29.910Z,100897.78
2022-12-05T21:56:01.350Z,100898.19
2022-12-05T21:58:30.132Z,100894.97
2022-12-05T22:00:58.349Z,100895.81
2022-12-05T22:03:26.857Z,100896.22
2022-12-05T22:06:02.390Z,100907.75
2022-12-05T22:08:31.600Z,100899.91
2022-12-05T22:11:05.320Z,100899.72
2022-12-05T22:13:33.892Z,100894.25
2022-12-05T22:16:02.712Z,100897.50
2022-12-05T22:18:31.680Z,100896.72
2022-12-05T22:21:00.718Z,100901.56
2022-12-05T22:23:30.512Z,100894.25
2022-12-05T22:25:59.772Z,100903.59
2022-12-05T22:28:28.239Z,100904.19
2022-12-05T22:30:56.693Z,100900.34
2022-12-05T22:33:25.658Z,100900.34
2022-12-05T22:35:54.079Z,100903.81
2022-12-05T22:38:22.297Z,100902.38
2022-12-05T22:40:56.023Z,100897.53
2022-12-05T22:43:25.635Z,100898.75
2022-12-05T22:45:54.002Z,100904.44
2022-12-05T22:48:22.833Z,100897.31
2022-12-05T22:50:52.626Z,100893.47
2022-12-05T22:53:21.570Z,100891.47
2022-12-05T22:55:49.817Z,100889.41
2022-12-05T22:58:19.745Z,100891.03
2022-12-05T23:00:48.029Z,100887.81
2022-12-05T23:03:16.310Z,100890.44
2022-12-05T23:05:45.233Z,100889.41
2022-12-05T23:08:13.983Z,100884.56
2022-12-05T23:10:42.087Z,100882.53
2022-12-05T23:13:10.303Z,100885.38
2022-12-05T23:15:39.663Z,100879.72
2022-12-05T23:18:08.578Z,100881.75
2022-12-05T23:20:36.609Z,100876.91
2022-12-05T23:23:05.090Z,100873.66
2022-12-05T23:25:33.059Z,100874.88
2022-12-05T23:28:01.210Z,100869.22
2022-12-05T23:30:29.315Z,100867.63
2022-12-05T23:32:59.487Z,100868.00
2022-12-05T23:35:27.385Z,100871.66
2022-12-05T23:37:55.705Z,100870.06
2022-12-05T23:40:24.457Z,100867.25
2022-12-05T23:42:52.599Z,100868.84
2022-12-05T23:45:20.648Z,100871.06
2022-12-05T23:47:48.825Z,100870.28
2022-12-05T23:50:18.525Z,100866.41
2022-12-05T23:52:46.840Z,100857.13
2022-12-05T23:55:14.963Z,100860.34
2022-12-05T23:57:43.172Z,100859.94
